Two Harbors, MN

6:48 PM CDT on September 22, 2017 (GMT -0500)
Helgeson

Weather History for KTWM - February, 2014

Change the Weather History Date:

Wednesday, February 19, 2014

  Actual Average Record
Temperature  
Mean Temperature 32 °F -  
Max Temperature 42 °F 30 °F 47 °F (1981)
Min Temperature 21 °F 11 °F -28 °F (1966)
Degree Days  
Heating Degree Days 34    
Moisture  
Dew Point 18 °F    
Average Humidity 61    
Maximum Humidity 80    
Minimum Humidity 39    
Precipitation  
Precipitation 0.00 in - - ()
Sea Level Pressure  
Sea Level Pressure 29.66 in    
Wind  
Wind Speed 8 mph (West)    
Max Wind Speed 16 mph    
Max Gust Speed 22 mph    
Visibility 10 miles    
Events      
Averages and records for this station are not official NWS values.
T = Trace of Precipitation, MM = Missing Value Source: NWS Daily Summary

Daily Weather History Graph

Daily Weather History Graph

Search for Another Location

Airport or City:

Trip Planner

Search our weather history database for the weather conditions in past years. The results will help you decide how hot, cold, wet, or windy it might be!

Date:

Astronomy

Feb. 19, 2014 Rise Set
Actual Time 7:04 AM CST 5:37 PM CST
Civil Twilight 6:33 AM CST 6:08 PM CST
Nautical Twilight 5:58 AM CST 6:44 PM CST
Astronomical Twilight 5:23 AM CST 7:19 PM CST
Moon 10:53 PM CST (2/19) 8:51 AM CST (2/19)
Length of Visible Light 11h 34m
Length of Day
10h 32m
Waning Gibbous, 79% of the Moon is Illuminated
Feb 19
Waning Gibbous
Feb 22
Last Quarter
Mar 1
New
Mar 8
First Quarter
Mar 16
Full

Hourly Weather History & Observations

Time (CST) Temp. Windchill Dew Point Humidity Pressure Visibility Wind Dir Wind Speed Gust Speed Precip Events Conditions
12:14 AM 28.4 °F 20.4 °F 17.6 °F 64% 29.59 in 10.0 mi West 8.1 mph - N/A   Clear
12:33 AM 28.4 °F 19.7 °F 17.6 °F 64% 29.59 in 10.0 mi West 9.2 mph 18.4 mph N/A   Clear
12:53 AM 28.4 °F 19.7 °F 17.6 °F 64% 29.59 in 10.0 mi West 9.2 mph - N/A   Clear
1:14 AM 28.4 °F 18.0 °F 17.6 °F 64% 29.59 in 10.0 mi West 12.7 mph 19.6 mph N/A   Clear
1:33 AM 28.4 °F 19.1 °F 17.6 °F 64% 29.60 in 10.0 mi WNW 10.4 mph 21.9 mph N/A   Clear
1:53 AM 26.6 °F 16.2 °F 17.6 °F 69% 29.60 in 10.0 mi WNW 11.5 mph 21.9 mph N/A   Clear
2:13 AM 26.6 °F 16.8 °F 17.6 °F 69% 29.60 in 10.0 mi WNW 10.4 mph 18.4 mph N/A   Clear
2:33 AM 26.6 °F 15.7 °F 17.6 °F 69% 29.59 in 10.0 mi West 12.7 mph 19.6 mph N/A   Clear
2:53 AM 26.6 °F 17.5 °F 17.6 °F 69% 29.60 in 10.0 mi WNW 9.2 mph 18.4 mph N/A   Clear
3:13 AM 26.6 °F 17.5 °F 17.6 °F 69% 29.60 in 10.0 mi WNW 9.2 mph 19.6 mph N/A   Clear
3:33 AM 24.8 °F 14.6 °F 17.6 °F 74% 29.60 in 10.0 mi WNW 10.4 mph 17.3 mph N/A   Clear
3:53 AM 24.8 °F 15.3 °F 17.6 °F 74% 29.60 in 10.0 mi WNW 9.2 mph 17.3 mph N/A   Clear
4:13 AM 24.8 °F 14.0 °F 17.6 °F 74% 29.60 in 10.0 mi WNW 11.5 mph 19.6 mph N/A   Clear
4:33 AM 24.8 °F 14.6 °F 15.8 °F 69% 29.60 in 10.0 mi WNW 10.4 mph 20.7 mph N/A   Clear
4:53 AM 24.8 °F 14.0 °F 15.8 °F 69% 29.62 in 10.0 mi WNW 11.5 mph 19.6 mph N/A   Clear
5:13 AM 24.8 °F 15.3 °F 15.8 °F 69% 29.61 in 10.0 mi WNW 9.2 mph 18.4 mph N/A   Clear
5:33 AM 24.8 °F 15.3 °F 15.8 °F 69% 29.62 in 10.0 mi WNW 9.2 mph 16.1 mph N/A   Clear
5:53 AM 24.8 °F 15.3 °F 15.8 °F 69% 29.63 in 10.0 mi West 9.2 mph - N/A   Clear
6:13 AM 23.0 °F 13.1 °F 15.8 °F 74% 29.63 in 10.0 mi WNW 9.2 mph 18.4 mph N/A   Clear
6:33 AM 23.0 °F 13.1 °F 15.8 °F 74% 29.62 in 10.0 mi WNW 9.2 mph - N/A   Clear
6:54 AM 21.2 °F 10.9 °F 15.8 °F 80% 29.63 in 10.0 mi WNW 9.2 mph 17.3 mph N/A   Clear
7:13 AM 21.2 °F 11.7 °F 15.8 °F 80% 29.63 in 10.0 mi WNW 8.1 mph 16.1 mph N/A   Clear
7:33 AM 21.2 °F 10.9 °F 15.8 °F 80% 29.64 in 10.0 mi WNW 9.2 mph 16.1 mph N/A   Clear
7:54 AM 23.0 °F 13.9 °F 15.8 °F 74% 29.64 in 10.0 mi West 8.1 mph - N/A   Clear
8:13 AM 24.8 °F 14.6 °F 15.8 °F 69% 29.65 in 10.0 mi WNW 10.4 mph 16.1 mph N/A   Clear
8:33 AM 24.8 °F 15.3 °F 15.8 °F 69% 29.65 in 10.0 mi WNW 9.2 mph - N/A   Clear
8:54 AM 26.6 °F 17.5 °F 17.6 °F 69% 29.65 in 10.0 mi WNW 9.2 mph - N/A   Clear
9:13 AM 26.6 °F 21.2 °F 17.6 °F 69% 29.66 in 10.0 mi WNW 4.6 mph - N/A   Clear
9:33 AM 28.4 °F 19.7 °F 17.6 °F 64% 29.66 in 10.0 mi West 9.2 mph - N/A   Clear
9:54 AM 30.2 °F 23.4 °F 17.6 °F 60% 29.67 in 10.0 mi West 6.9 mph - N/A   Clear
10:13 AM 32.0 °F 24.2 °F 19.4 °F 60% 29.67 in 10.0 mi West 9.2 mph 16.1 mph N/A   Clear
10:33 AM 33.8 °F 25.8 °F 19.4 °F 56% 29.67 in 10.0 mi West 10.4 mph 16.1 mph N/A   Clear
10:54 AM 33.8 °F 26.4 °F 19.4 °F 56% 29.67 in 10.0 mi West 9.2 mph 18.4 mph N/A   Clear
11:13 AM 35.6 °F 29.9 °F 19.4 °F 52% 29.67 in 10.0 mi West 6.9 mph 18.4 mph N/A   Clear
11:33 AM 37.4 °F 32.1 °F 19.4 °F 48% 29.67 in 10.0 mi West 6.9 mph - N/A   Clear
11:53 AM 37.4 °F 29.8 °F 19.4 °F 48% 29.67 in 10.0 mi WSW 11.5 mph - N/A   Clear
12:13 PM 37.4 °F 28.9 °F 19.4 °F 48% 29.66 in 10.0 mi West 13.8 mph 19.6 mph N/A   Clear
12:33 PM 37.4 °F 28.5 °F 19.4 °F 48% 29.65 in 7.0 mi West 15.0 mph 19.6 mph N/A   Clear
12:53 PM 37.4 °F 28.2 °F 17.6 °F 45% 29.65 in 5.0 mi West 16.1 mph 20.7 mph N/A   Haze
1:13 PM 39.2 °F 32.5 °F 17.6 °F 42% 29.65 in 10.0 mi West 10.4 mph 18.4 mph N/A   Clear
1:33 PM 39.2 °F 31.2 °F 19.4 °F 45% 29.66 in 10.0 mi WSW 13.8 mph 19.6 mph N/A   Clear
1:53 PM 39.2 °F 33.0 °F 19.4 °F 45% 29.66 in 7.0 mi WSW 9.2 mph 21.9 mph N/A   Clear
2:13 PM 41.0 °F 33.5 °F 19.4 °F 42% 29.66 in 10.0 mi West 13.8 mph 21.9 mph N/A   Clear
2:33 PM 42.8 °F 37.5 °F 19.4 °F 39% 29.66 in 10.0 mi West 9.2 mph 16.1 mph N/A   Clear
2:53 PM 41.0 °F 32.8 °F 19.4 °F 42% 29.67 in 10.0 mi WSW 16.1 mph 19.6 mph N/A   Clear
3:13 PM 41.0 °F 33.9 °F 19.4 °F 42% 29.67 in 10.0 mi SW 12.7 mph 18.4 mph N/A   Clear
3:33 PM 41.0 °F 34.3 °F 19.4 °F 42% 29.68 in 10.0 mi SW 11.5 mph 18.4 mph N/A   Clear
3:53 PM 41.0 °F 36.4 °F 19.4 °F 42% 29.68 in 10.0 mi WSW 6.9 mph 18.4 mph N/A   Clear
4:13 PM 39.2 °F 33.6 °F 17.6 °F 42% 29.68 in 10.0 mi WSW 8.1 mph - N/A   Clear
4:33 PM 39.2 °F 33.6 °F 17.6 °F 42% 29.69 in 10.0 mi WSW 8.1 mph - N/A   Clear
4:53 PM 37.4 °F 33.8 °F 17.6 °F 45% 29.68 in 10.0 mi WSW 4.6 mph - N/A   Clear
5:13 PM 37.4 °F - 19.4 °F 48% 29.69 in 10.0 mi Calm Calm - N/A   Clear
5:33 PM 35.6 °F - 17.6 °F 48% 29.69 in 10.0 mi Calm Calm - N/A   Clear
5:53 PM 33.8 °F - 17.6 °F 52% 29.69 in 10.0 mi Calm Calm - N/A   Clear
6:13 PM 33.8 °F - 17.6 °F 52% 29.70 in 10.0 mi Calm Calm - N/A   Clear
6:33 PM 30.2 °F - 17.6 °F 60% 29.70 in 10.0 mi Calm Calm - N/A   Clear
6:53 PM 28.4 °F - 17.6 °F 64% 29.71 in 10.0 mi Calm Calm - N/A   Clear
7:13 PM 28.4 °F - 17.6 °F 64% 29.71 in 10.0 mi Calm Calm - N/A   Clear
7:33 PM 28.4 °F - 17.6 °F 64% 29.70 in 10.0 mi Calm Calm - N/A   Clear
7:53 PM 28.4 °F - 17.6 °F 64% 29.70 in 10.0 mi Calm Calm - N/A   Scattered Clouds
8:13 PM 26.6 °F - 19.4 °F 74% 29.71 in 10.0 mi Calm Calm - N/A   Scattered Clouds
8:33 PM 28.4 °F - 17.6 °F 64% 29.71 in 10.0 mi Calm Calm - N/A   Clear
8:53 PM 26.6 °F - 19.4 °F 74% 29.71 in 10.0 mi Calm Calm - N/A   Clear
9:13 PM 26.6 °F - 19.4 °F 74% 29.71 in 10.0 mi Calm Calm - N/A   Scattered Clouds
9:33 PM 26.6 °F - 19.4 °F 74% 29.71 in 10.0 mi Calm Calm - N/A   Overcast
9:53 PM 28.4 °F 24.6 °F 19.4 °F 69% 29.70 in 10.0 mi ENE 3.5 mph - N/A   Mostly Cloudy
10:13 PM 30.2 °F - 19.4 °F 64% 29.70 in 10.0 mi Calm Calm - N/A   Scattered Clouds
10:33 PM 30.2 °F 26.7 °F 19.4 °F 64% 29.70 in 10.0 mi ENE 3.5 mph - N/A   Scattered Clouds
10:53 PM 30.2 °F - 19.4 °F 64% 29.70 in 10.0 mi Calm Calm - N/A   Scattered Clouds
11:13 PM 30.2 °F 26.7 °F 19.4 °F 64% 29.70 in 10.0 mi ENE 3.5 mph - N/A   Mostly Cloudy
11:33 PM 30.2 °F 26.7 °F 19.4 °F 64% 29.70 in 10.0 mi ENE 3.5 mph - N/A   Overcast
11:53 PM 30.2 °F 25.4 °F 19.4 °F 64% 29.70 in 10.0 mi ENE 4.6 mph - N/A   Overcast